Time;durP1;ratioP1;P1;durP2;ratioP2;P2;SDS_P1;SDS_P2;PMS_P1;PMS_P2;Temp;Humidity;BMP_temperature;BMP_pressure;BME280_temperature;BME280_humidity;BME280_pressure;Samples;Min_cycle;Max_cycle;Signal;HPM_P1;HPM_P2
2021/08/10 00:00:51;;;;;;;9.07;3.40;;;;;;;19.24;78.14;100633.41;1424555;90;21509;-82
2021/08/10 00:03:17;;;;;;;7.93;3.07;;;;;;;19.21;78.38;100641.86;1412008;91;22328;-81
2021/08/10 00:05:47;;;;;;;9.83;3.17;;;;;;;19.16;78.37;100637.60;1428670;90;21450;-82
2021/08/10 00:08:11;;;;;;;7.07;2.70;;;;;;;19.12;78.73;100635.84;1431154;91;22344;-82
2021/08/10 00:10:37;;;;;;;4.93;2.90;;;;;;;19.09;78.74;100637.58;1429807;90;21531;-82
2021/08/10 00:13:04;;;;;;;7.00;3.40;;;;;;;19.08;78.60;100635.11;1443284;91;22400;-82
2021/08/10 00:15:30;;;;;;;4.10;2.47;;;;;;;19.06;78.58;100634.47;1449019;90;21485;-82
2021/08/10 00:17:56;;;;;;;5.10;3.57;;;;;;;19.04;78.55;100632.48;1426046;91;21672;-82
2021/08/10 00:20:23;;;;;;;8.03;2.83;;;;;;;19.02;78.52;100637.21;1431575;91;22397;-82
2021/08/10 00:22:51;;;;;;;4.60;3.00;;;;;;;18.99;78.59;100637.13;1432820;90;21586;-82
2021/08/10 00:25:17;;;;;;;3.57;3.17;;;;;;;18.98;78.73;100642.16;1428476;90;21567;-82
2021/08/10 00:27:44;;;;;;;5.40;2.50;;;;;;;18.96;78.76;100643.38;1427263;91;21611;-82
2021/08/10 00:30:11;;;;;;;4.10;2.90;;;;;;;18.93;78.76;100646.79;1426187;91;21515;-82
2021/08/10 00:32:37;;;;;;;5.17;3.57;;;;;;;18.90;79.17;100650.35;1436346;91;21780;-82
2021/08/10 00:35:04;;;;;;;4.83;2.70;;;;;;;18.87;79.12;100647.58;1425743;91;21561;-82
2021/08/10 00:37:30;;;;;;;7.53;3.17;;;;;;;18.84;79.07;100643.92;1424997;91;22567;-82
2021/08/10 00:39:56;;;;;;;6.43;3.50;;;;;;;18.82;79.03;100640.63;1434837;91;21524;-82
2021/08/10 00:42:22;;;;;;;4.93;2.90;;;;;;;18.79;79.07;100634.80;1432517;91;21454;-82
2021/08/10 00:44:49;;;;;;;5.37;2.80;;;;;;;18.77;79.12;100639.04;1432393;90;21464;-82
2021/08/10 00:47:15;;;;;;;4.13;3.47;;;;;;;18.73;78.98;100637.76;1429014;90;21553;-82
2021/08/10 00:49:42;;;;;;;4.47;2.87;;;;;;;18.68;78.98;100641.02;1434566;90;22601;-82
2021/08/10 00:52:08;;;;;;;3.20;2.70;;;;;;;18.69;79.04;100641.83;1433477;91;21428;-82
2021/08/10 00:54:34;;;;;;;10.70;2.93;;;;;;;18.68;79.01;100634.83;1436349;90;21405;-82
2021/08/10 00:57:01;;;;;;;7.00;2.67;;;;;;;18.66;79.12;100632.33;1435722;90;21586;-82
2021/08/10 00:59:28;;;;;;;3.83;3.10;;;;;;;18.63;79.69;100632.72;1433226;90;21524;-82
2021/08/10 01:01:54;;;;;;;10.20;3.53;;;;;;;18.61;79.32;100629.91;1432614;91;21434;-82
2021/08/10 01:04:20;;;;;;;9.27;3.20;;;;;;;18.55;79.22;100632.04;1432521;91;21477;-82
2021/08/10 01:07:04;;;;;;;3.50;3.00;;;;;;;18.48;79.37;100619.94;1421251;91;22499;-82
2021/08/10 01:10:02;;;;;;;5.70;2.77;;;;;;;18.45;79.41;100633.73;1437677;90;21641;-82
2021/08/10 01:12:40;;;;;;;9.93;3.73;;;;;;;18.43;79.42;100631.75;1427794;91;21501;-81
2021/08/10 01:15:14;;;;;;;6.53;3.07;;;;;;;18.36;79.55;100633.04;1432412;91;21642;-82
2021/08/10 01:18:00;;;;;;;5.87;3.00;;;;;;;18.32;79.49;100631.75;1427967;90;21449;-81
2021/08/10 01:21:04;;;;;;;5.27;3.43;;;;;;;18.29;79.78;100632.66;1438488;91;22388;-82
2021/08/10 01:23:32;;;;;;;6.83;3.03;;;;;;;18.25;79.77;100634.90;1434167;90;21649;-82
2021/08/10 01:26:23;;;;;;;5.73;3.10;;;;;;;18.17;80.51;100631.02;1444572;90;21434;-82
2021/08/10 01:29:34;;;;;;;9.30;3.10;;;;;;;18.12;80.10;100630.23;1430363;91;22521;-82
2021/08/10 01:32:01;;;;;;;5.08;3.25;;;;;;;18.09;80.79;100627.95;1428121;90;21464;-82
2021/08/10 01:34:47;;;;;;;10.30;3.03;;;;;;;18.02;80.86;100627.06;1437018;91;21361;-82
2021/08/10 01:37:25;;;;;;;7.33;2.93;;;;;;;18.00;80.75;100623.74;1428245;91;21369;-82
2021/08/10 01:39:56;;;;;;;3.50;2.43;;;;;;;17.98;80.59;100626.63;1425809;90;21456;-82
2021/08/10 01:42:25;;;;;;;3.93;2.93;;;;;;;17.96;80.83;100632.67;1436525;91;21339;-82
2021/08/10 01:44:54;;;;;;;3.60;3.13;;;;;;;17.94;80.91;100634.70;1425817;91;21657;-82
2021/08/10 01:47:22;;;;;;;6.80;3.77;;;;;;;17.93;80.73;100632.23;1432274;90;21523;-82
2021/08/10 01:49:50;;;;;;;4.83;4.33;;;;;;;17.91;80.91;100632.92;1428512;91;21885;-82
2021/08/10 01:52:21;;;;;;;4.70;3.47;;;;;;;17.85;80.85;100633.69;1437788;90;21442;-82
2021/08/10 01:54:49;;;;;;;6.10;3.83;;;;;;;17.81;81.08;100638.61;1439148;90;22272;-82
2021/08/10 01:57:19;;;;;;;9.57;3.17;;;;;;;17.79;81.58;100642.80;1423219;91;21376;-82
2021/08/10 01:59:49;;;;;;;3.50;2.87;;;;;;;17.78;81.37;100637.13;1435083;90;21407;-82
2021/08/10 02:02:16;;;;;;;5.80;3.30;;;;;;;17.77;81.47;100638.09;1417768;91;21324;-82
2021/08/10 02:04:44;;;;;;;4.70;2.90;;;;;;;17.75;81.94;100637.97;1430537;90;21398;-82
2021/08/10 02:07:11;;;;;;;6.20;3.33;;;;;;;17.74;81.69;100639.00;1416868;91;21585;-82
2021/08/10 02:09:39;;;;;;;10.03;4.47;;;;;;;17.73;81.98;100634.67;1438486;91;21397;-82
2021/08/10 02:12:07;;;;;;;3.90;3.10;;;;;;;17.71;82.76;100635.36;1438756;90;22314;-82
2021/08/10 02:14:35;;;;;;;5.17;3.60;;;;;;;17.67;82.54;100626.06;1432033;90;22294;-82
2021/08/10 02:17:04;;;;;;;7.67;3.80;;;;;;;17.62;82.84;100629.81;1421264;91;21324;-82
2021/08/10 02:19:30;;;;;;;6.37;3.30;;;;;;;17.56;84.38;100633.55;1426388;90;21398;-82
2021/08/10 02:22:04;;;;;;;4.57;2.97;;;;;;;17.54;83.81;100631.56;1433975;90;21412;-82
2021/08/10 02:24:39;;;;;;;5.53;3.60;;;;;;;17.51;83.89;100627.11;1432578;90;21494;-82
2021/08/10 02:27:13;;;;;;;5.00;3.23;;;;;;;17.50;83.72;100627.62;1438872;90;21434;-82
2021/08/10 02:29:44;;;;;;;4.13;3.53;;;;;;;17.50;83.26;100630.30;1434453;91;21450;-82
2021/08/10 02:32:14;;;;;;;6.10;3.57;;;;;;;17.49;83.40;100627.79;1436205;90;21369;-82
2021/08/10 02:34:43;;;;;;;;;;;;;;;17.50;83.30;100632.14;1431224;91;22381;-82
2021/08/10 02:37:15;;;;;;;5.07;3.80;;;;;;;17.48;83.33;100633.66;1437576;90;20302;-82
2021/08/10 02:39:45;;;;;;;8.53;3.70;;;;;;;17.47;83.81;100633.86;1437363;90;21605;-82
2021/08/10 02:42:14;;;;;;;5.00;3.20;;;;;;;17.46;83.72;100639.70;1430176;91;21354;-82
2021/08/10 02:44:43;;;;;;;5.13;3.80;;;;;;;17.43;84.17;100636.06;1430758;90;22462;-82
2021/08/10 02:47:11;;;;;;;4.83;3.20;;;;;;;17.38;84.00;100641.16;1419823;90;21615;-82
2021/08/10 02:49:40;;;;;;;4.17;3.77;;;;;;;17.33;84.29;100640.89;1427970;91;21450;-82
2021/08/10 02:52:07;;;;;;;3.50;2.93;;;;;;;17.31;84.11;100649.59;1430220;90;21258;-82
2021/08/10 02:54:34;;;;;;;2.37;2.17;;;;;;;17.28;86.20;100649.97;1428243;91;21517;-82
2021/08/10 02:57:05;;;;;;;5.97;3.33;;;;;;;17.26;85.91;100647.98;1428806;90;21525;-82
2021/08/10 02:59:40;;;;;;;10.73;3.17;;;;;;;17.25;85.19;100643.66;1436287;91;21427;-82
2021/08/10 03:02:19;;;;;;;8.60;3.13;;;;;;;17.24;85.29;100649.52;1428306;90;21369;-81
2021/08/10 03:04:56;;;;;;;5.27;3.13;;;;;;;17.21;85.02;100647.22;1422309;91;21377;-82
2021/08/10 03:07:26;;;;;;;5.97;2.80;;;;;;;17.21;84.83;100650.41;1436478;90;22486;-81
2021/08/10 03:09:59;;;;;;;4.92;2.83;;;;;;;17.19;86.36;100649.75;1430748;90;21392;-82
2021/08/10 03:12:30;;;;;;;7.60;3.17;;;;;;;17.18;85.87;100653.45;1422173;91;21434;-82
2021/08/10 03:14:58;;;;;;;10.43;3.60;;;;;;;17.16;85.20;100652.29;1438779;91;21583;-82
2021/08/10 03:17:29;;;;;;;4.20;3.37;;;;;;;17.17;84.76;100656.61;1435606;91;21340;-81
2021/08/10 03:19:57;;;;;;;6.70;3.37;;;;;;;17.19;84.27;100655.11;1439497;90;22299;-82
2021/08/10 03:22:27;;;;;;;6.90;3.73;;;;;;;17.13;85.73;100654.83;1433579;91;22382;-82
2021/08/10 03:24:56;;;;;;;6.05;3.27;;;;;;;17.10;86.08;100655.70;1424923;90;21509;-82
2021/08/10 03:27:24;;;;;;;3.40;2.83;;;;;;;17.08;85.91;100653.20;1437733;90;21397;-82
2021/08/10 03:29:53;;;;;;;7.10;3.80;;;;;;;17.06;86.58;100649.91;1436306;91;21376;-82
2021/08/10 03:32:20;;;;;;;4.43;3.40;;;;;;;17.04;86.12;100645.23;1434923;91;21523;-82
2021/08/10 03:34:47;;;;;;;6.27;2.73;;;;;;;17.03;85.78;100646.27;1437827;90;22307;-82
2021/08/10 03:37:15;;;;;;;7.80;3.33;;;;;;;17.00;85.66;100645.78;1437244;91;21383;-82
2021/08/10 03:39:43;;;;;;;6.23;3.10;;;;;;;17.01;85.53;100638.92;1422979;91;21443;-82
2021/08/10 03:42:11;;;;;;;4.77;3.23;;;;;;;17.04;86.12;100641.23;1429356;90;21339;-82
2021/08/10 03:44:42;;;;;;;5.77;3.33;;;;;;;17.05;85.60;100634.86;1431659;90;21583;-82
2021/08/10 03:47:16;;;;;;;8.90;3.70;;;;;;;17.08;85.25;100629.14;1429596;91;21567;-82
2021/08/10 03:49:45;;;;;;;7.60;3.73;;;;;;;17.09;85.03;100625.47;1434377;91;21361;-82
2021/08/10 03:52:14;;;;;;;5.17;4.50;;;;;;;17.10;84.42;100628.45;1441790;91;21494;-82
2021/08/10 03:54:42;;;;;;;8.43;4.27;;;;;;;17.17;84.73;100637.06;1436655;90;21464;-82
2021/08/10 03:57:15;;;;;;;9.83;4.30;;;;;;;17.18;84.80;100640.91;1441003;90;22931;-82
2021/08/10 03:59:43;;;;;;;7.97;4.30;;;;;;;17.23;84.58;100647.02;1432570;91;21361;-82
2021/08/10 04:02:12;;;;;;;6.23;3.87;;;;;;;17.30;84.41;100658.65;1440766;91;21280;-82
2021/08/10 04:04:40;;;;;;;5.30;3.73;;;;;;;17.36;84.34;100662.73;1428431;91;21413;-82
2021/08/10 04:07:08;;;;;;;7.97;3.20;;;;;;;17.43;84.25;100660.14;1441896;91;21472;-82
2021/08/10 04:09:38;;;;;;;8.17;3.27;;;;;;;17.47;84.27;100664.12;1443680;91;21382;-82
2021/08/10 04:12:10;;;;;;;5.77;3.13;;;;;;;17.52;84.11;100664.39;1430784;90;21353;-82
2021/08/10 04:14:39;;;;;;;8.27;3.93;;;;;;;17.56;84.06;100660.31;1431510;90;22359;-82
2021/08/10 04:17:07;;;;;;;5.83;3.13;;;;;;;17.60;84.05;100665.59;1440538;91;21604;-82
2021/08/10 04:19:45;;;;;;;11.90;4.37;;;;;;;17.67;84.19;100668.89;1445087;91;21494;-82
2021/08/10 04:22:07;;;;;;;4.17;3.37;;;;;;;17.68;84.35;100670.02;1437043;91;21509;-82
2021/08/10 04:24:33;;;;;;;8.20;4.00;;;;;;;17.71;84.45;100672.32;1435895;91;22395;-81
2021/08/10 04:26:59;;;;;;;4.23;3.10;;;;;;;17.76;84.18;100673.93;1428330;91;21406;-82
2021/08/10 04:29:25;;;;;;;5.53;3.90;;;;;;;17.82;83.89;100677.73;1427968;91;22175;-82
2021/08/10 04:31:51;;;;;;;12.87;3.83;;;;;;;17.89;83.32;100677.80;1413525;91;21368;-82
2021/08/10 04:34:18;;;;;;;5.30;3.33;;;;;;;17.95;82.85;100688.59;1441917;91;22521;-82
2021/08/10 04:36:44;;;;;;;5.10;3.17;;;;;;;18.04;82.64;100682.10;1445308;91;21441;-82
2021/08/10 04:39:10;;;;;;;10.03;3.80;;;;;;;18.14;82.38;100682.29;1422659;91;22395;-82
2021/08/10 04:41:37;;;;;;;6.37;3.50;;;;;;;18.22;82.07;100676.81;1438669;91;21360;-82
2021/08/10 04:44:03;;;;;;;6.43;3.33;;;;;;;18.29;81.53;100676.34;1438914;90;21435;-82
2021/08/10 04:46:30;;;;;;;5.70;3.37;;;;;;;18.39;81.35;100674.19;1435366;91;22359;-82
2021/08/10 04:48:56;;;;;;;5.43;3.83;;;;;;;18.42;81.20;100679.16;1442071;90;21670;-82
2021/08/10 04:51:23;;;;;;;11.20;4.00;;;;;;;18.47;81.21;100684.77;1435754;91;21353;-82
2021/08/10 04:53:49;;;;;;;12.57;3.80;;;;;;;18.57;81.08;100689.80;1450539;90;21390;-82
2021/08/10 04:56:15;;;;;;;10.57;3.03;;;;;;;18.69;80.95;100694.94;1437964;90;21331;-82
2021/08/10 04:58:41;;;;;;;5.92;2.67;;;;;;;18.78;80.48;100704.21;1442203;91;21471;-82
2021/08/10 05:01:08;;;;;;;3.70;3.40;;;;;;;18.88;80.29;100700.17;1435669;91;21450;-82
2021/08/10 05:03:34;;;;;;;11.70;4.62;;;;;;;18.98;79.74;100691.77;1431698;90;21383;-82
2021/08/10 05:06:02;;;;;;;23.57;13.58;;;;;;;19.07;79.48;100683.05;1435776;90;21605;-82
2021/08/10 05:08:28;;;;;;;16.90;9.90;;;;;;;19.10;78.43;100679.98;1430459;91;21427;-82
2021/08/10 05:10:56;;;;;;;11.63;7.70;;;;;;;19.13;78.61;100688.97;1438378;91;21361;-82
2021/08/10 05:13:22;;;;;;;18.98;9.30;;;;;;;19.21;78.61;100686.13;1439305;90;21338;-82
2021/08/10 05:15:48;;;;;;;13.15;8.30;;;;;;;19.22;77.99;100685.61;1443026;90;21494;-82
2021/08/10 05:18:14;;;;;;;12.35;6.05;;;;;;;19.27;78.09;100676.47;1437807;90;21892;-82
2021/08/10 05:20:40;;;;;;;6.62;4.90;;;;;;;19.31;77.82;100682.59;1443355;91;21449;-82
2021/08/10 05:23:07;;;;;;;10.35;5.95;;;;;;;19.38;77.89;100676.73;1441151;90;21383;-82
2021/08/10 05:25:33;;;;;;;14.73;6.10;;;;;;;19.51;77.85;100675.16;1439509;91;22285;-83
2021/08/10 05:27:59;;;;;;;9.18;4.85;;;;;;;19.63;77.56;100670.86;1442865;91;21391;-82
2021/08/10 05:30:25;;;;;;;11.08;4.58;;;;;;;19.76;77.49;100673.59;1442751;90;21420;-82
2021/08/10 05:32:51;;;;;;;6.30;3.00;;;;;;;19.86;77.07;100669.72;1436198;90;21567;-83
2021/08/10 05:35:18;;;;;;;3.87;3.20;;;;;;;19.90;75.77;100669.62;1436553;91;21391;-82
2021/08/10 05:37:44;;;;;;;5.95;4.55;;;;;;;20.01;76.07;100674.40;1440972;91;22433;-82
2021/08/10 05:40:12;;;;;;;7.55;4.30;;;;;;;20.12;75.75;100667.61;1443343;91;21398;-83
2021/08/10 05:42:38;;;;;;;6.37;4.47;;;;;;;20.26;75.45;100665.25;1435484;90;21428;-82
2021/08/10 05:45:06;;;;;;;6.55;3.95;;;;;;;20.35;74.57;100661.32;1431248;90;21434;-82
2021/08/10 05:47:32;;;;;;;6.58;3.87;;;;;;;20.42;74.37;100664.00;1430941;90;22122;-82
2021/08/10 05:49:58;;;;;;;5.87;4.37;;;;;;;20.47;73.81;100666.91;1440153;91;21590;-82
2021/08/10 05:52:24;;;;;;;8.83;5.37;;;;;;;20.57;74.35;100666.02;1435989;91;21354;-82
2021/08/10 05:54:50;;;;;;;12.63;5.97;;;;;;;20.65;74.02;100661.75;1441487;90;22307;-83
2021/08/10 05:57:17;;;;;;;11.65;8.65;;;;;;;20.75;73.35;100663.21;1436980;90;21324;-83
2021/08/10 05:59:44;;;;;;;9.95;7.25;;;;;;;20.86;72.84;100658.52;1434729;90;21361;-82
2021/08/10 06:02:11;;;;;;;8.73;6.53;;;;;;;20.93;72.08;100658.81;1448085;90;21500;-83
2021/08/10 06:04:37;;;;;;;10.95;5.25;;;;;;;21.02;72.00;100656.73;1426582;90;21360;-82
2021/08/10 06:07:06;;;;;;;9.98;5.25;;;;;;;21.12;71.60;100663.04;1434179;90;21383;-83
2021/08/10 06:09:32;;;;;;;11.68;4.95;;;;;;;21.19;71.27;100664.66;1439597;91;22421;-82
2021/08/10 06:11:58;;;;;;;10.48;5.37;;;;;;;21.24;70.79;100664.55;1440568;91;21558;-83
2021/08/10 06:14:24;;;;;;;4.33;3.92;;;;;;;21.33;71.28;100672.70;1431262;90;22365;-83
2021/08/10 06:16:51;;;;;;;5.08;3.55;;;;;;;21.46;71.46;100661.89;1420468;91;21564;-83
2021/08/10 06:19:17;;;;;;;8.55;2.87;;;;;;;21.57;70.63;100661.22;1436262;90;21420;-83
2021/08/10 06:21:44;;;;;;;6.10;3.02;;;;;;;21.74;70.77;100666.12;1437210;91;21552;-83
2021/08/10 06:24:10;;;;;;;4.62;3.40;;;;;;;21.95;70.71;100675.24;1431956;91;21435;-83
2021/08/10 06:26:36;;;;;;;3.37;3.08;;;;;;;22.04;69.00;100669.89;1434292;91;21405;-83
2021/08/10 06:29:02;;;;;;;5.33;4.40;;;;;;;22.16;69.44;100675.41;1442452;90;21361;-83
2021/08/10 06:31:28;;;;;;;4.67;2.67;;;;;;;22.26;69.32;100678.99;1431224;91;21411;-82
2021/08/10 06:33:54;;;;;;;5.35;2.62;;;;;;;22.40;69.43;100678.38;1434973;91;21869;-82
2021/08/10 06:36:20;;;;;;;7.70;2.80;;;;;;;22.50;68.67;100678.20;1432096;90;21499;-83
2021/08/10 06:38:47;;;;;;;6.53;3.70;;;;;;;22.60;68.54;100676.87;1447101;91;21457;-82
2021/08/10 06:41:13;;;;;;;54.10;4.78;;;;;;;22.71;68.48;100674.27;1441319;91;21517;-82
2021/08/10 06:43:39;;;;;;;9.68;3.35;;;;;;;22.87;68.05;100679.64;1441757;90;21449;-83
2021/08/10 06:46:05;;;;;;;6.58;3.12;;;;;;;23.01;66.89;100680.87;1431752;90;21522;-83
2021/08/10 06:48:31;;;;;;;5.35;2.12;;;;;;;23.12;66.60;100674.73;1432208;91;21626;-83
2021/08/10 10:12:07;;;;;;;9.20;2.30;;;;;;;30.73;45.00;100630.40;1591260;79;28169;-82
2021/08/10 10:14:34;;;;;;;66.33;5.67;;;;;;;30.71;45.32;100634.50;1576602;82;21483;-83
2021/08/10 10:17:02;;;;;;;4.35;1.85;;;;;;;30.70;45.90;100636.94;1578054;82;22556;-82
2021/08/10 10:19:30;;;;;;;6.17;2.60;;;;;;;30.72;45.66;100638.86;1575104;82;22274;-83
2021/08/10 10:21:58;;;;;;;5.40;2.00;;;;;;;30.69;45.56;100636.13;1569316;82;21601;-81
2021/08/10 10:24:26;;;;;;;2.90;2.60;;;;;;;30.62;45.16;100637.53;1567194;82;21490;-82
2021/08/10 10:27:04;;;;;;;3.05;2.22;;;;;;;30.61;44.52;100638.61;1572079;82;21328;-82
2021/08/10 10:29:31;;;;;;;10.45;2.55;;;;;;;30.62;45.38;100645.72;1572160;82;21498;-83
2021/08/10 10:31:58;;;;;;;5.83;2.67;;;;;;;30.62;45.88;100639.70;1578770;82;21490;-83
2021/08/10 10:34:26;;;;;;;13.53;2.70;;;;;;;30.76;45.45;100642.69;1567757;82;21475;-83
2021/08/10 10:36:52;;;;;;;3.55;2.12;;;;;;;30.84;45.34;100639.95;1564515;82;21520;-82
2021/08/10 10:39:32;;;;;;;2.50;2.30;;;;;;;30.93;45.03;100633.65;1568334;82;21460;-83
2021/08/10 10:42:01;;;;;;;3.15;2.22;;;;;;;30.93;44.25;100636.38;1562944;82;21609;-83
2021/08/10 10:44:44;;;;;;;9.33;2.33;;;;;;;30.83;44.42;100636.95;1567183;82;21483;-82
2021/08/10 10:47:31;;;;;;;3.55;2.30;;;;;;;30.60;44.93;100635.61;1585671;82;21343;-82
2021/08/10 10:50:03;;;;;;;3.02;2.15;;;;;;;30.62;43.79;100641.63;1572553;82;21497;-83
2021/08/10 10:52:32;;;;;;;4.12;2.05;;;;;;;30.55;44.47;100627.69;1573329;82;21786;-83
2021/08/10 10:55:00;;;;;;;6.53;2.00;;;;;;;30.69;44.78;100627.94;1571239;82;21482;-83
2021/08/10 10:57:35;;;;;;;4.17;2.17;;;;;;;30.73;45.23;100618.66;1571744;82;21350;-83
2021/08/10 11:00:14;;;;;;;2.80;2.35;;;;;;;30.80;44.69;100623.30;1576596;82;21373;-83
2021/08/10 11:02:41;;;;;;;3.90;2.20;;;;;;;30.91;44.70;100619.44;1576963;82;22331;-83
2021/08/10 11:05:22;;;;;;;4.85;2.33;;;;;;;30.98;44.08;100621.86;1569936;82;21357;-82
2021/08/10 11:07:55;;;;;;;2.67;2.27;;;;;;;31.02;43.41;100619.67;1572448;82;22296;-83
2021/08/10 11:10:47;;;;;;;8.88;3.02;;;;;;;31.06;43.97;100619.11;1576653;82;21674;-82
2021/08/10 11:13:25;;;;;;;4.03;2.08;;;;;;;31.07;43.58;100620.19;1583645;82;21497;-82
2021/08/10 11:15:55;;;;;;;3.17;2.42;;;;;;;31.19;43.50;100623.98;1567970;82;21438;-83
2021/08/10 11:18:22;;;;;;;;;;;;;;;31.23;41.69;100622.31;1576545;82;21409;-83
2021/08/10 11:20:53;;;;;;;4.80;2.65;;;;;;;31.35;43.83;100620.61;1575580;82;20828;-82
2021/08/10 11:23:25;;;;;;;5.35;2.45;;;;;;;31.56;42.85;100616.67;1570826;82;21504;-83
2021/08/10 11:26:05;;;;;;;4.05;2.20;;;;;;;31.72;42.67;100616.04;1576527;82;21373;-83
2021/08/10 11:28:46;;;;;;;2.35;1.98;;;;;;;31.88;43.29;100614.83;1560319;82;22391;-83
2021/08/10 11:31:24;;;;;;;2.20;2.00;;;;;;;32.05;41.98;100606.25;1584592;82;21424;-83
2021/08/10 11:33:50;;;;;;;3.25;2.87;;;;;;;31.93;40.41;100602.23;1573426;82;21431;-83
2021/08/10 11:36:24;;;;;;;5.42;2.47;;;;;;;32.05;40.91;100607.62;1571201;82;21519;-83
2021/08/10 11:38:56;;;;;;;3.37;2.70;;;;;;;32.08;41.38;100603.46;1576102;82;22444;-83
2021/08/10 11:41:34;;;;;;;16.55;3.15;;;;;;;32.12;41.69;100602.61;1570608;82;21535;-83
2021/08/10 11:44:19;;;;;;;4.17;2.30;;;;;;;32.21;41.32;100605.55;1573131;82;22311;-82
2021/08/10 11:46:47;;;;;;;8.90;3.12;;;;;;;32.39;41.12;100599.08;1576052;82;22290;-83
2021/08/10 11:49:20;;;;;;;5.25;2.37;;;;;;;32.50;39.64;100597.34;1563687;82;22317;-83
2021/08/10 11:51:49;;;;;;;4.15;2.52;;;;;;;32.49;39.96;100601.76;1562637;82;22325;-83
2021/08/10 11:54:24;;;;;;;6.50;2.55;;;;;;;32.38;39.63;100604.30;1564332;82;21446;-83
2021/08/10 11:57:03;;;;;;;3.75;2.65;;;;;;;32.21;40.01;100601.44;1585229;82;23295;-83
2021/08/10 11:59:30;;;;;;;4.40;2.20;;;;;;;32.30;39.90;100602.44;1574602;82;21520;-83
2021/08/10 12:02:00;;;;;;;2.47;2.27;;;;;;;31.93;40.25;100600.31;1571042;82;22369;-83
2021/08/10 12:04:30;;;;;;;4.40;2.15;;;;;;;31.95;39.53;100593.19;1575858;82;21504;-83
2021/08/10 12:06:59;;;;;;;6.65;2.30;;;;;;;32.04;39.54;100591.47;1542108;82;21615;-83
2021/08/10 12:09:33;;;;;;;2.62;2.42;;;;;;;32.13;39.57;100587.00;1572555;82;21468;-83
2021/08/10 12:11:58;;;;;;;2.77;2.47;;;;;;;32.17;40.56;100583.13;1579085;82;21491;-83
2021/08/10 12:14:29;;;;;;;4.17;2.20;;;;;;;32.29;40.42;100581.65;1560860;82;21416;-83
2021/08/10 12:17:02;;;;;;;3.50;2.15;;;;;;;32.41;40.86;100574.97;1579008;82;21659;-83
2021/08/10 12:19:46;;;;;;;3.80;2.10;;;;;;;32.43;39.81;100570.02;1570294;82;22864;-83
2021/08/10 12:22:30;;;;;;;15.03;2.80;;;;;;;32.52;39.26;100571.86;1577250;82;21342;-83
2021/08/10 12:25:00;;;;;;;5.65;2.00;;;;;;;32.63;39.30;100565.72;1573892;82;21460;-83
2021/08/10 12:27:33;;;;;;;2.52;2.00;;;;;;;32.73;38.53;100567.51;1573108;82;22369;-83
2021/08/10 12:30:00;;;;;;;4.25;2.90;;;;;;;32.75;38.60;100568.85;1566879;82;21430;-84
2021/08/10 12:32:30;;;;;;;14.78;2.77;;;;;;;32.76;38.72;100569.10;1582434;82;21594;-84
2021/08/10 12:34:56;;;;;;;;;;;;;;;32.81;38.70;100564.94;1575867;82;21533;-83
2021/08/10 12:37:32;;;;;;;4.83;2.20;;;;;;;32.53;37.52;100569.37;1559834;82;21562;-84
2021/08/10 12:39:59;;;;;;;3.05;2.25;;;;;;;32.38;38.89;100567.33;1573558;82;21476;-84
2021/08/10 12:42:26;;;;;;;3.98;2.25;;;;;;;32.13;38.49;100562.36;1568270;82;21483;-83
2021/08/10 12:44:55;;;;;;;4.75;2.60;;;;;;;32.30;39.02;100557.26;1581327;82;22235;-83
2021/08/10 12:47:36;;;;;;;10.60;2.70;;;;;;;32.21;39.28;100550.78;1571459;82;22318;-84
2021/08/10 12:50:24;;;;;;;5.75;2.65;;;;;;;32.25;38.96;100547.72;1574226;82;21468;-83
2021/08/10 12:52:50;;;;;;;4.33;3.70;;;;;;;32.38;39.01;100539.95;1568870;82;21843;-83
2021/08/10 12:55:16;;;;;;;6.22;2.55;;;;;;;32.76;38.72;100540.33;1551994;82;22342;-84
2021/08/10 12:57:43;;;;;;;3.40;2.17;;;;;;;32.90;36.17;100540.99;1568846;82;21416;-84
2021/08/10 13:00:21;;;;;;;3.67;2.02;;;;;;;33.14;36.52;100536.28;1569505;82;21450;-83
2021/08/10 13:02:50;;;;;;;4.40;2.00;;;;;;;33.53;36.44;100538.50;1575821;82;21504;-82
2021/08/10 13:05:20;;;;;;;3.87;2.25;;;;;;;34.04;35.90;100537.12;1574629;82;21556;-82
2021/08/10 13:08:08;;;;;;;3.45;1.90;;;;;;;34.29;32.82;100530.31;1570232;82;21511;-82
2021/08/10 13:10:37;;;;;;;5.78;2.30;;;;;;;34.32;33.84;100529.70;1584665;82;22312;-84
2021/08/10 13:13:09;;;;;;;5.33;2.33;;;;;;;34.47;33.12;100516.78;1567823;82;22555;-84
2021/08/10 13:15:49;;;;;;;5.08;2.27;;;;;;;34.38;34.32;100520.80;1578994;82;22399;-84
2021/08/10 13:18:23;;;;;;;6.95;2.37;;;;;;;34.31;35.29;100515.72;1576062;82;21394;-83
2021/08/10 13:20:54;;;;;;;12.37;3.58;;;;;;;34.53;34.74;100505.41;1582551;82;21987;-83
2021/08/10 13:23:23;;;;;;;3.22;2.40;;;;;;;35.40;33.06;100486.19;1578801;81;21402;-84
2021/08/10 13:26:02;;;;;;;3.27;1.70;;;;;;;35.40;33.06;100486.19;1578800;82;22100;-84
2021/08/10 13:28:47;;;;;;;8.00;2.27;;;;;;;35.71;32.10;100494.52;1571500;82;21402;-84
2021/08/10 13:31:20;;;;;;;3.98;2.25;;;;;;;36.00;31.30;100484.39;1575483;82;22282;-84
2021/08/10 13:33:57;;;;;;;11.03;2.95;;;;;;;36.28;31.99;100483.64;1575155;82;21526;-84
2021/08/10 13:36:29;;;;;;;4.55;2.52;;;;;;;36.56;31.27;100480.08;1572954;82;22466;-84
2021/08/10 13:38:57;;;;;;;4.70;2.50;;;;;;;36.85;30.27;100472.34;1573382;82;22106;-84
2021/08/10 13:41:31;;;;;;;22.58;3.75;;;;;;;37.07;29.01;100465.33;1582428;82;21452;-84
2021/08/10 13:43:59;;;;;;;2.62;2.08;;;;;;;37.42;29.15;100465.29;1579155;82;22332;-83
2021/08/10 13:46:28;;;;;;;3.17;2.05;;;;;;;37.73;28.57;100465.66;1580035;82;21373;-84
2021/08/10 13:48:56;;;;;;;2.65;2.40;;;;;;;37.95;28.52;100466.81;1578802;82;21949;-84
2021/08/10 13:51:23;;;;;;;4.33;2.22;;;;;;;38.25;28.03;100467.66;1578366;82;21388;-84
2021/08/10 13:53:49;;;;;;;9.68;2.10;;;;;;;38.46;27.46;100462.19;1577397;82;22303;-84
2021/08/10 13:56:16;;;;;;;6.00;1.87;;;;;;;38.69;27.64;100453.01;1573138;82;21557;-84
2021/08/10 13:58:42;;;;;;;6.50;3.17;;;;;;;38.50;28.12;100451.27;1563842;82;23263;-84
2021/08/10 14:01:17;;;;;;;4.58;2.00;;;;;;;38.42;27.79;100448.81;1567129;82;21534;-83
2021/08/10 14:03:40;;;;;;;5.10;2.75;;;;;;;38.54;27.22;100444.74;1578094;82;22339;-84
2021/08/10 14:06:06;;;;;;;7.58;3.67;;;;;;;38.57;27.02;100447.41;1578887;82;21461;-84
2021/08/10 14:08:34;;;;;;;5.70;3.02;;;;;;;38.69;27.24;100443.91;1574500;82;21387;-84
2021/08/10 14:11:05;;;;;;;;;;;;;;;38.88;27.22;100442.91;1575164;82;21608;-84
2021/08/10 14:13:31;;;;;;;2.50;2.02;;;;;;;38.95;25.62;100440.38;1573408;82;20221;-84
2021/08/10 14:15:57;;;;;;;11.93;2.60;;;;;;;39.06;26.43;100434.45;1580094;82;21482;-84
2021/08/10 14:18:24;;;;;;;7.37;2.80;;;;;;;39.28;26.27;100435.45;1574602;82;21365;-84
2021/08/10 14:20:50;;;;;;;9.30;2.10;;;;;;;39.06;25.68;100433.06;1578396;82;21607;-84
2021/08/10 14:23:17;;;;;;;4.87;2.25;;;;;;;39.15;26.25;100433.78;1562524;82;22406;-84
2021/08/10 14:25:43;;;;;;;5.37;3.02;;;;;;;39.41;25.95;100430.20;1563575;82;21608;-84
2021/08/10 14:28:09;;;;;;;4.80;2.52;;;;;;;39.71;25.03;100430.05;1567700;82;21431;-84
2021/08/10 14:30:35;;;;;;;4.60;1.95;;;;;;;40.00;24.63;100431.81;1570061;82;21416;-84
2021/08/10 14:33:02;;;;;;;4.55;1.92;;;;;;;40.21;24.34;100440.03;1574111;82;21366;-84
2021/08/10 14:35:28;;;;;;;4.42;2.17;;;;;;;40.26;24.62;100440.39;1568958;82;21468;-84
2021/08/10 14:37:55;;;;;;;2.40;2.12;;;;;;;40.19;24.04;100439.56;1581994;82;21446;-85
2021/08/10 14:40:21;;;;;;;7.85;2.80;;;;;;;40.24;24.36;100440.72;1575844;81;22399;-84
2021/08/10 14:42:48;;;;;;;3.83;2.33;;;;;;;39.99;24.22;100437.69;1553415;82;21394;-84
2021/08/10 14:45:15;;;;;;;2.80;2.35;;;;;;;39.71;25.03;100435.00;1555052;82;22377;-84
2021/08/10 14:47:42;;;;;;;3.13;1.93;;;;;;;39.63;24.34;100428.18;1571231;82;21579;-84
2021/08/10 14:50:10;;;;;;;5.60;2.40;;;;;;;39.82;24.27;100431.80;1574776;82;21461;-84
2021/08/10 14:52:37;;;;;;;3.72;2.05;;;;;;;39.78;24.12;100430.88;1578298;82;21379;-84
2021/08/10 14:55:04;;;;;;;3.87;2.02;;;;;;;39.96;24.43;100428.69;1577305;82;21460;-84
2021/08/10 14:57:31;;;;;;;1.90;1.57;;;;;;;39.74;24.44;100429.35;1582609;82;21542;-84